createdAt,value
2019-05-19T00:01:46.430Z,96573.47
2019-05-19T00:04:15.199Z,96556.34
2019-05-19T00:06:43.933Z,96556.34
2019-05-19T00:09:12.760Z,96578.34
2019-05-19T00:11:41.542Z,96583.50
2019-05-19T00:14:10.201Z,96585.77
2019-05-19T00:16:38.867Z,96578.23
2019-05-19T00:19:07.645Z,96581.17
2019-05-19T00:21:36.388Z,96571.76
2019-05-19T00:24:05.083Z,96573.64
2019-05-19T00:26:33.907Z,96569.44
2019-05-19T00:29:02.574Z,96571.56
2019-05-19T00:31:31.299Z,96571.53
2019-05-19T00:33:59.944Z,96568.73
2019-05-19T00:36:28.621Z,96571.53
2019-05-19T00:38:57.268Z,96574.16
2019-05-19T00:41:26.048Z,96576.52
2019-05-19T00:43:54.732Z,96569.92
2019-05-19T00:46:23.880Z,96569.39
2019-05-19T00:48:52.657Z,96574.69
2019-05-19T00:51:22.113Z,96566.01
2019-05-19T00:53:50.757Z,96558.91
2019-05-19T00:56:20.166Z,96563.83
2019-05-19T00:58:50.092Z,96558.18
2019-05-19T01:01:18.821Z,96561.59
2019-05-19T01:03:47.536Z,96555.47
2019-05-19T01:06:16.267Z,96559.84
2019-05-19T01:08:45.006Z,96561.64
2019-05-19T01:11:13.711Z,96564.08
2019-05-19T01:13:42.382Z,96565.66
2019-05-19T01:16:11.029Z,96563.30
2019-05-19T01:18:39.797Z,96558.83
2019-05-19T01:21:08.510Z,96562.55
2019-05-19T01:23:37.178Z,96554.91
2019-05-19T01:26:05.925Z,96555.36
2019-05-19T01:28:34.655Z,96564.13
2019-05-19T01:31:03.374Z,96560.02
2019-05-19T01:33:33.895Z,96562.94
2019-05-19T01:36:02.614Z,96562.49
2019-05-19T01:38:31.342Z,96557.39
2019-05-19T01:40:59.999Z,96570.11
2019-05-19T01:43:28.729Z,96568.71
2019-05-19T01:45:57.496Z,96569.59
2019-05-19T01:48:28.033Z,96575.11
2019-05-19T01:50:56.516Z,96567.59
2019-05-19T01:53:25.293Z,96557.53
2019-05-19T01:55:54.032Z,96563.37
2019-05-19T01:58:22.756Z,96568.41
2019-05-19T02:00:51.454Z,96565.75
2019-05-19T02:03:20.196Z,96559.39
2019-05-19T02:05:48.914Z,96563.36
2019-05-19T02:08:17.650Z,96559.09
2019-05-19T02:10:46.338Z,96563.84
2019-05-19T02:13:15.006Z,96566.27
2019-05-19T02:15:43.863Z,96567.21
2019-05-19T02:18:12.588Z,96568.48
2019-05-19T02:20:41.338Z,96578.81
2019-05-19T02:23:10.033Z,96578.61
2019-05-19T02:25:38.709Z,96578.70
2019-05-19T02:28:07.403Z,96577.28
2019-05-19T02:30:36.183Z,96575.89
2019-05-19T02:33:04.843Z,96575.98
2019-05-19T02:35:33.489Z,96582.14
2019-05-19T02:38:02.251Z,96577.19
2019-05-19T02:40:33.939Z,96578.02
2019-05-19T02:43:03.325Z,96574.28
2019-05-19T02:45:34.285Z,96574.47
2019-05-19T02:48:04.218Z,96575.23
2019-05-19T02:50:50.783Z,96584.70
2019-05-19T02:53:06.585Z,96580.48
2019-05-19T02:55:36.618Z,96581.92
2019-05-19T02:58:06.330Z,96580.58
2019-05-19T03:00:40.518Z,96579.14
2019-05-19T03:03:09.570Z,96584.73
2019-05-19T03:05:38.885Z,96586.66
2019-05-19T03:08:07.617Z,96578.46
2019-05-19T03:10:36.344Z,96580.34
2019-05-19T03:13:05.016Z,96582.25
2019-05-19T03:15:33.696Z,96577.14
2019-05-19T03:18:02.316Z,96573.41
2019-05-19T03:20:30.942Z,96583.62
2019-05-19T03:22:59.744Z,96584.15
2019-05-19T03:25:28.428Z,96591.39
2019-05-19T03:27:57.281Z,96594.67
2019-05-19T03:30:43.682Z,96589.81
2019-05-19T03:33:16.907Z,96584.46
2019-05-19T03:35:45.498Z,96589.44
2019-05-19T03:38:14.270Z,96590.59
2019-05-19T03:40:43.036Z,96589.15
2019-05-19T03:43:11.812Z,96582.52
2019-05-19T03:45:40.748Z,96591.36
2019-05-19T03:48:09.442Z,96585.81
2019-05-19T03:50:38.183Z,96602.02
2019-05-19T03:53:06.911Z,96600.58
2019-05-19T03:55:35.604Z,96601.47
2019-05-19T03:58:04.333Z,96604.45
2019-05-19T04:00:33.020Z,96608.39
2019-05-19T04:03:01.653Z,96610.71
2019-05-19T04:05:30.226Z,96621.62
2019-05-19T04:07:58.972Z,96621.54
2019-05-19T04:10:27.638Z,96617.87
2019-05-19T04:12:56.381Z,96616.06
2019-05-19T04:15:25.168Z,96617.11
2019-05-19T04:17:53.846Z,96613.65
2019-05-19T04:20:22.468Z,96608.07
2019-05-19T04:22:51.188Z,96624.35
2019-05-19T04:25:19.903Z,96618.53
2019-05-19T04:27:48.567Z,96616.82
2019-05-19T04:30:17.434Z,96602.91
2019-05-19T04:32:46.089Z,96607.86
2019-05-19T04:35:14.912Z,96607.05
2019-05-19T04:37:43.606Z,96607.45
2019-05-19T04:40:12.482Z,96611.86
2019-05-19T04:42:44.171Z,96608.72
2019-05-19T04:45:13.596Z,96615.48
2019-05-19T04:47:42.211Z,96610.41
2019-05-19T04:50:11.444Z,96616.11
2019-05-19T04:52:40.125Z,96608.71
2019-05-19T04:55:09.358Z,96607.30
2019-05-19T04:57:38.091Z,96592.68
2019-05-19T05:00:07.288Z,96593.69
2019-05-19T05:02:35.942Z,96589.28
2019-05-19T05:05:05.723Z,96585.13
2019-05-19T05:07:34.516Z,96580.06
2019-05-19T05:10:03.245Z,96579.57
2019-05-19T05:12:31.902Z,96578.74
2019-05-19T05:15:00.612Z,96577.34
2019-05-19T05:17:29.339Z,96577.16
2019-05-19T05:19:58.006Z,96576.28
2019-05-19T05:22:26.626Z,96577.17
2019-05-19T05:24:55.302Z,96586.89
2019-05-19T05:27:24.122Z,96580.14
2019-05-19T05:29:52.928Z,96575.86
2019-05-19T05:32:21.701Z,96578.36
2019-05-19T05:34:50.431Z,96564.46
2019-05-19T05:37:19.156Z,96585.86
2019-05-19T05:39:47.812Z,96579.20
2019-05-19T05:42:16.469Z,96577.55
2019-05-19T05:44:45.329Z,96567.97
2019-05-19T05:47:14.038Z,96573.63
2019-05-19T05:49:42.631Z,96568.05
2019-05-19T05:52:11.418Z,96567.86
2019-05-19T05:54:40.079Z,96561.00
2019-05-19T05:57:08.750Z,96564.58
2019-05-19T05:59:37.537Z,96560.84
2019-05-19T06:02:06.260Z,96560.91
2019-05-19T06:04:35.022Z,96562.05
2019-05-19T06:07:03.702Z,96561.38
2019-05-19T06:09:32.309Z,96550.22
2019-05-19T06:12:01.031Z,96547.87
2019-05-19T06:14:29.817Z,96544.85
2019-05-19T06:16:58.449Z,96541.52
2019-05-19T06:19:27.155Z,96535.44
2019-05-19T06:21:55.859Z,96535.30
2019-05-19T06:24:24.508Z,96538.56
2019-05-19T06:26:53.263Z,96532.92
2019-05-19T06:29:22.162Z,96531.55
2019-05-19T06:31:50.995Z,96524.78
2019-05-19T06:34:19.707Z,96524.91
2019-05-19T06:36:48.484Z,96515.68
2019-05-19T06:39:17.152Z,96518.92
2019-05-19T06:41:45.877Z,96513.16
2019-05-19T06:44:14.591Z,96513.34
2019-05-19T06:46:43.236Z,96519.78
2019-05-19T06:49:12.008Z,96513.72
2019-05-19T06:51:40.674Z,96511.88
2019-05-19T06:54:09.333Z,96503.90
2019-05-19T06:56:38.176Z,96504.45
2019-05-19T06:59:07.029Z,96504.45
2019-05-19T07:01:35.743Z,96488.38
2019-05-19T07:04:04.583Z,96492.67
2019-05-19T07:06:34.317Z,96493.18
2019-05-19T07:09:04.752Z,96477.24
2019-05-19T07:11:33.451Z,96482.11
2019-05-19T07:14:03.047Z,96492.14
2019-05-19T07:16:31.949Z,96484.47
2019-05-19T07:19:00.669Z,96493.23
2019-05-19T07:21:29.398Z,96492.81
2019-05-19T07:23:58.091Z,96490.78
2019-05-19T07:26:27.143Z,96493.81
2019-05-19T07:28:58.869Z,96482.87
2019-05-19T07:31:26.345Z,96492.82
2019-05-19T07:33:55.044Z,96501.67
2019-05-19T07:36:23.708Z,96494.00
2019-05-19T07:38:52.480Z,96492.16
2019-05-19T07:41:21.194Z,96482.01
2019-05-19T07:43:49.934Z,96475.56
2019-05-19T07:46:18.668Z,96473.67
2019-05-19T07:48:47.294Z,96474.56
2019-05-19T07:51:16.044Z,96475.31
2019-05-19T07:53:44.784Z,96476.11
2019-05-19T07:56:13.443Z,96475.88
2019-05-19T07:59:03.075Z,96472.47
2019-05-19T08:01:31.710Z,96461.06
2019-05-19T08:04:00.354Z,96451.06
2019-05-19T08:06:28.980Z,96442.86
2019-05-19T08:08:57.954Z,96435.20
2019-05-19T08:11:26.563Z,96448.67
2019-05-19T08:13:55.258Z,96462.95
2019-05-19T08:16:23.966Z,96456.51
2019-05-19T08:18:52.829Z,96465.05
2019-05-19T08:21:21.450Z,96463.41
2019-05-19T08:24:00.079Z,96464.17
2019-05-19T08:26:20.584Z,96460.56
2019-05-19T08:28:49.382Z,96455.53
2019-05-19T08:31:18.047Z,96454.70
2019-05-19T08:33:46.741Z,96451.19
2019-05-19T08:36:15.497Z,96451.19
2019-05-19T08:38:44.221Z,96439.50
2019-05-19T08:41:12.914Z,96435.55
2019-05-19T08:43:41.685Z,96419.78
2019-05-19T08:46:11.427Z,96426.78
2019-05-19T08:48:40.141Z,96423.92
2019-05-19T08:51:10.472Z,96426.42
2019-05-19T08:53:39.160Z,96424.11
2019-05-19T08:56:10.724Z,96422.77
2019-05-19T08:58:39.571Z,96412.25
2019-05-19T09:01:08.289Z,96410.81
2019-05-19T09:03:36.947Z,96415.56
2019-05-19T09:06:05.693Z,96407.58
2019-05-19T09:08:34.378Z,96403.30
2019-05-19T09:11:02.996Z,96415.33
2019-05-19T09:13:45.640Z,96398.58
2019-05-19T09:16:21.417Z,96400.69
2019-05-19T09:18:51.503Z,96396.55
2019-05-19T09:21:20.140Z,96402.08
2019-05-19T09:23:48.790Z,96381.52
2019-05-19T09:26:17.500Z,96381.20
2019-05-19T09:28:46.335Z,96384.12
2019-05-19T09:31:14.918Z,96386.72
2019-05-19T09:33:43.577Z,96388.42
2019-05-19T09:36:12.456Z,96371.30
2019-05-19T09:38:41.191Z,96384.88
2019-05-19T09:41:11.568Z,96376.48
2019-05-19T09:43:41.849Z,96380.17
2019-05-19T09:46:13.960Z,96373.33
2019-05-19T09:48:42.181Z,96367.29
2019-05-19T09:51:12.460Z,96371.59
2019-05-19T09:53:41.101Z,96365.56
2019-05-19T09:56:09.819Z,96354.81
2019-05-19T09:58:38.466Z,96357.02
2019-05-19T10:01:07.194Z,96350.00
2019-05-19T10:03:35.876Z,96351.00
2019-05-19T10:06:04.526Z,96352.77
2019-05-19T10:08:34.131Z,96353.73
2019-05-19T10:11:28.825Z,96358.27
2019-05-19T10:13:57.647Z,96360.90
2019-05-19T10:16:26.463Z,96347.41
2019-05-19T10:18:55.183Z,96354.09
2019-05-19T10:21:23.938Z,96358.57
2019-05-19T10:23:52.710Z,96357.07
2019-05-19T10:26:21.510Z,96361.18
2019-05-19T10:28:50.286Z,96361.38
2019-05-19T10:31:19.044Z,96357.91
2019-05-19T10:33:48.013Z,96370.56
2019-05-19T10:36:16.630Z,96368.67
2019-05-19T10:38:45.350Z,96373.37
2019-05-19T10:41:14.029Z,96361.23
2019-05-19T10:43:42.879Z,96358.87
2019-05-19T10:46:11.547Z,96358.88
2019-05-19T10:48:40.312Z,96350.06
2019-05-19T10:51:08.964Z,96347.52
2019-05-19T10:53:37.579Z,96341.57
2019-05-19T10:56:06.292Z,96340.76
2019-05-19T10:58:35.036Z,96340.41
2019-05-19T11:01:03.816Z,96347.75
2019-05-19T11:03:32.611Z,96342.09
2019-05-19T11:06:01.275Z,96330.73
2019-05-19T11:08:30.003Z,96324.56
2019-05-19T11:10:58.623Z,96319.73
2019-05-19T11:13:27.377Z,96317.20
2019-05-19T11:15:56.124Z,96322.02
2019-05-19T11:18:24.891Z,96322.84
2019-05-19T11:20:53.679Z,96323.83
2019-05-19T11:23:22.576Z,96331.19
2019-05-19T11:25:51.953Z,96321.36
2019-05-19T11:28:20.837Z,96324.72
2019-05-19T11:30:49.543Z,96313.41
2019-05-19T11:33:18.195Z,96312.55
2019-05-19T11:35:46.928Z,96310.88
2019-05-19T11:38:15.669Z,96302.17
2019-05-19T11:40:44.416Z,96304.89
2019-05-19T11:43:13.055Z,96308.21
2019-05-19T11:45:41.880Z,96306.29
2019-05-19T11:48:10.589Z,96316.25
2019-05-19T11:50:42.000Z,96317.03
2019-05-19T11:53:09.696Z,96304.52
2019-05-19T11:55:38.482Z,96309.20
2019-05-19T11:58:09.560Z,96299.88
2019-05-19T12:00:38.253Z,96307.83
2019-05-19T12:03:06.893Z,96311.55
2019-05-19T12:05:35.658Z,96302.70
2019-05-19T12:08:04.416Z,96306.84
2019-05-19T12:10:33.130Z,96308.22
2019-05-19T12:13:01.806Z,96307.35
2019-05-19T12:15:30.589Z,96299.11
2019-05-19T12:17:59.159Z,96303.83
2019-05-19T12:20:28.228Z,96297.35
2019-05-19T12:22:57.013Z,96291.40
2019-05-19T12:25:25.729Z,96299.44
2019-05-19T12:27:54.523Z,96299.56
2019-05-19T12:30:23.361Z,96298.38
2019-05-19T12:32:52.034Z,96293.31
2019-05-19T12:35:21.004Z,96286.97
2019-05-19T12:37:49.715Z,96285.35
2019-05-19T12:40:22.446Z,96293.73
2019-05-19T12:42:49.416Z,96283.71
2019-05-19T12:45:18.608Z,96296.13
2019-05-19T12:47:47.328Z,96291.42
2019-05-19T12:50:16.057Z,96292.02
2019-05-19T12:52:44.736Z,96286.89
2019-05-19T12:55:13.765Z,96287.40
2019-05-19T12:57:42.403Z,96289.34
2019-05-19T13:00:11.267Z,96293.44
2019-05-19T13:02:39.896Z,96290.50
2019-05-19T13:05:08.836Z,96288.92
2019-05-19T13:07:37.490Z,96288.59
2019-05-19T13:10:07.553Z,96287.65
2019-05-19T13:12:36.207Z,96298.14
2019-05-19T13:15:07.120Z,96296.52
2019-05-19T13:17:35.907Z,96302.03
2019-05-19T13:20:05.492Z,96303.73
2019-05-19T13:22:34.128Z,96300.98
2019-05-19T13:25:02.996Z,96293.30
2019-05-19T13:27:31.641Z,96292.76
2019-05-19T13:30:00.418Z,96291.93
2019-05-19T13:32:29.137Z,96284.28
2019-05-19T13:34:57.794Z,96298.41
2019-05-19T13:37:26.493Z,96294.54
2019-05-19T13:39:55.271Z,96291.81
2019-05-19T13:42:24.008Z,96297.37
2019-05-19T13:44:52.645Z,96293.48
2019-05-19T13:47:21.392Z,96284.00
2019-05-19T13:49:50.132Z,96293.73
2019-05-19T13:52:18.917Z,96290.11
2019-05-19T13:54:47.598Z,96280.95
2019-05-19T13:57:16.242Z,96284.54
2019-05-19T13:59:45.048Z,96279.62
2019-05-19T14:02:13.818Z,96281.52
2019-05-19T14:04:42.308Z,96285.44
2019-05-19T14:07:10.952Z,96273.51
2019-05-19T14:09:39.713Z,96276.92
2019-05-19T14:12:08.376Z,96283.67
2019-05-19T14:14:37.113Z,96291.87
2019-05-19T14:17:05.881Z,96283.46
2019-05-19T14:19:34.655Z,96285.91
2019-05-19T14:22:03.294Z,96291.36
2019-05-19T14:24:32.251Z,96289.81
2019-05-19T14:27:00.975Z,96296.67
2019-05-19T14:29:29.615Z,96297.61
2019-05-19T14:31:58.327Z,96301.23
2019-05-19T14:34:27.025Z,96285.75
2019-05-19T14:36:55.878Z,96292.52
2019-05-19T14:39:24.568Z,96297.89
2019-05-19T14:41:54.999Z,96291.12
2019-05-19T14:44:23.653Z,96284.33
2019-05-19T14:46:52.299Z,96277.59
2019-05-19T14:49:21.006Z,96279.80
2019-05-19T14:51:49.717Z,96275.76
2019-05-19T14:54:18.431Z,96259.88
2019-05-19T14:56:47.095Z,96264.30
2019-05-19T14:59:15.761Z,96247.43
2019-05-19T15:01:44.503Z,96246.70
2019-05-19T15:04:13.216Z,96249.48
2019-05-19T15:06:41.794Z,96247.14
2019-05-19T15:09:10.568Z,96222.78
2019-05-19T15:11:39.395Z,96228.83
2019-05-19T15:14:08.137Z,96238.09
2019-05-19T15:16:36.790Z,96228.98
2019-05-19T15:19:05.662Z,96218.96
2019-05-19T15:21:34.249Z,96222.88
2019-05-19T15:24:02.999Z,96211.44
2019-05-19T15:26:31.762Z,96216.41
2019-05-19T15:29:00.417Z,96214.55
2019-05-19T15:31:29.092Z,96209.88
2019-05-19T15:33:57.980Z,96198.73
2019-05-19T15:36:26.615Z,96205.06
2019-05-19T15:38:55.382Z,96199.52
2019-05-19T15:41:24.106Z,96205.86
2019-05-19T15:43:52.830Z,96202.88
2019-05-19T15:46:21.528Z,96209.42
2019-05-19T15:48:50.158Z,96207.70
2019-05-19T15:51:28.421Z,96212.73
2019-05-19T15:53:50.133Z,96198.22
2019-05-19T15:56:18.886Z,96199.45
2019-05-19T15:58:47.461Z,96208.70
2019-05-19T16:01:16.329Z,96197.64
2019-05-19T16:03:45.078Z,96197.22
2019-05-19T16:06:13.760Z,96196.08
2019-05-19T16:08:42.480Z,96192.28
2019-05-19T16:11:11.171Z,96197.05
2019-05-19T16:13:39.789Z,96190.36
2019-05-19T16:16:08.458Z,96183.09
2019-05-19T16:18:37.167Z,96177.91
2019-05-19T16:21:05.899Z,96170.62
2019-05-19T16:23:34.587Z,96169.67
2019-05-19T16:26:03.262Z,96162.67
2019-05-19T16:28:32.015Z,96170.67
2019-05-19T16:31:00.693Z,96168.89
2019-05-19T16:33:29.276Z,96168.94
2019-05-19T16:35:57.866Z,96173.10
2019-05-19T16:38:26.643Z,96181.52
2019-05-19T16:40:56.207Z,96177.54
2019-05-19T16:43:26.335Z,96179.56
2019-05-19T16:45:55.105Z,96173.52
2019-05-19T16:48:23.786Z,96181.03
2019-05-19T16:50:52.500Z,96184.94
2019-05-19T16:53:21.101Z,96184.17
2019-05-19T16:55:49.778Z,96181.69
2019-05-19T16:58:21.462Z,96186.19
2019-05-19T17:00:49.009Z,96183.28
2019-05-19T17:03:17.634Z,96167.85
2019-05-19T17:05:46.301Z,96181.80
2019-05-19T17:08:15.005Z,96190.71
2019-05-19T17:10:43.819Z,96199.42
2019-05-19T17:13:12.480Z,96196.00
2019-05-19T17:15:41.195Z,96192.94
2019-05-19T17:18:09.978Z,96193.80
2019-05-19T17:20:38.638Z,96192.28
2019-05-19T17:23:07.250Z,96192.55
2019-05-19T17:25:37.235Z,96187.88
2019-05-19T17:28:05.866Z,96189.63
2019-05-19T17:30:34.537Z,96192.02
2019-05-19T17:33:03.252Z,96197.95
2019-05-19T17:35:32.251Z,96200.05
2019-05-19T17:38:00.964Z,96201.25
2019-05-19T17:40:30.245Z,96181.55
2019-05-19T17:42:59.163Z,96181.71
2019-05-19T17:45:27.805Z,96177.44
2019-05-19T17:48:09.200Z,96170.85
2019-05-19T17:50:32.041Z,96178.89
2019-05-19T17:53:00.761Z,96179.30
2019-05-19T17:55:31.299Z,96181.05
2019-05-19T17:58:01.478Z,96178.53
2019-05-19T18:00:36.287Z,96177.98
2019-05-19T18:03:06.042Z,96179.86
2019-05-19T18:05:34.932Z,96169.03
2019-05-19T18:08:03.784Z,96164.59
2019-05-19T18:10:32.546Z,96159.92
2019-05-19T18:13:01.234Z,96163.57
2019-05-19T18:15:29.878Z,96165.35
2019-05-19T18:17:58.572Z,96167.44
2019-05-19T18:20:27.346Z,96175.59
2019-05-19T18:22:56.067Z,96173.17
2019-05-19T18:25:24.782Z,96176.05
2019-05-19T18:27:53.557Z,96172.31
2019-05-19T18:30:22.278Z,96172.94
2019-05-19T18:32:51.046Z,96168.97
2019-05-19T18:35:19.984Z,96163.96
2019-05-19T18:37:48.713Z,96172.20
2019-05-19T18:40:17.537Z,96182.16
2019-05-19T18:42:46.210Z,96174.51
2019-05-19T18:45:15.174Z,96185.52
2019-05-19T18:47:43.792Z,96197.86
2019-05-19T18:50:12.753Z,96195.21
2019-05-19T18:52:41.534Z,96201.52
2019-05-19T18:55:10.491Z,96193.25
2019-05-19T18:57:39.123Z,96191.59
2019-05-19T19:00:08.163Z,96211.49
2019-05-19T19:02:36.910Z,96211.86
2019-05-19T19:05:07.395Z,96209.01
2019-05-19T19:07:52.634Z,96209.14
2019-05-19T19:10:21.379Z,96208.23
2019-05-19T19:12:50.182Z,96206.33
2019-05-19T19:15:18.989Z,96211.78
2019-05-19T19:17:47.677Z,96214.92
2019-05-19T19:20:16.653Z,96229.94
2019-05-19T19:22:45.367Z,96232.66
2019-05-19T19:25:14.117Z,96233.36
2019-05-19T19:27:42.760Z,96228.07
2019-05-19T19:30:12.705Z,96209.27
2019-05-19T19:32:41.333Z,96233.48
2019-05-19T19:35:10.184Z,96240.16
2019-05-19T19:37:38.877Z,96239.45
2019-05-19T19:40:08.651Z,96238.59
2019-05-19T19:42:37.313Z,96241.41
2019-05-19T19:45:06.383Z,96235.33
2019-05-19T19:47:35.122Z,96237.57
2019-05-19T19:50:05.053Z,96239.67
2019-05-19T19:52:33.705Z,96248.31
2019-05-19T19:55:02.467Z,96248.22
2019-05-19T19:57:31.220Z,96250.50
2019-05-19T20:00:00.001Z,96258.59
2019-05-19T20:02:28.730Z,96261.14
2019-05-19T20:04:57.434Z,96273.87
2019-05-19T20:07:26.196Z,96282.92
2019-05-19T20:09:54.869Z,96290.23
2019-05-19T20:12:23.602Z,96286.05
2019-05-19T20:14:52.284Z,96288.77
2019-05-19T20:17:20.991Z,96289.87
2019-05-19T20:19:49.787Z,96302.60
2019-05-19T20:22:18.562Z,96309.45
2019-05-19T20:24:47.338Z,96314.19
2019-05-19T20:27:15.935Z,96312.44
2019-05-19T20:29:44.867Z,96308.41
2019-05-19T20:32:13.562Z,96308.28
2019-05-19T20:34:42.340Z,96315.20
2019-05-19T20:37:11.042Z,96313.14
2019-05-19T20:39:39.690Z,96306.09
2019-05-19T20:42:08.408Z,96311.50
2019-05-19T20:44:37.192Z,96313.75
2019-05-19T20:47:05.909Z,96315.84
2019-05-19T20:49:34.641Z,96310.89
2019-05-19T20:52:03.331Z,96311.16
2019-05-19T20:54:31.896Z,96312.58
2019-05-19T20:57:00.657Z,96311.97
2019-05-19T20:59:29.389Z,96312.58
2019-05-19T21:01:58.165Z,96313.14
2019-05-19T21:04:27.648Z,96328.14
2019-05-19T21:06:56.398Z,96328.91
2019-05-19T21:09:25.054Z,96327.12
2019-05-19T21:11:53.699Z,96335.05
2019-05-19T21:14:22.325Z,96323.94
2019-05-19T21:16:51.045Z,96325.04
2019-05-19T21:19:19.776Z,96326.43
2019-05-19T21:21:48.452Z,96320.69
2019-05-19T21:24:17.118Z,96319.83
2019-05-19T21:26:45.738Z,96313.70
2019-05-19T21:29:14.425Z,96312.14
2019-05-19T21:31:43.076Z,96313.15
2019-05-19T21:34:11.897Z,96311.22
2019-05-19T21:36:40.815Z,96297.36
2019-05-19T21:39:09.513Z,96300.53
2019-05-19T21:41:38.372Z,96295.38
2019-05-19T21:44:07.202Z,96301.92
2019-05-19T21:46:35.875Z,96294.97
2019-05-19T21:49:04.500Z,96291.75
2019-05-19T21:51:33.193Z,96294.67
2019-05-19T21:54:01.907Z,96296.48
2019-05-19T21:56:30.548Z,96295.31
2019-05-19T21:58:59.257Z,96299.28
2019-05-19T22:01:28.089Z,96303.55
2019-05-19T22:03:56.820Z,96309.78
2019-05-19T22:06:27.273Z,96299.22
2019-05-19T22:08:55.837Z,96302.28
2019-05-19T22:11:24.656Z,96302.05
2019-05-19T22:13:53.413Z,96312.63
2019-05-19T22:16:22.071Z,96310.09
2019-05-19T22:18:50.807Z,96317.77
2019-05-19T22:21:19.509Z,96320.89
2019-05-19T22:23:48.236Z,96308.77
2019-05-19T22:26:16.874Z,96323.69
2019-05-19T22:28:45.654Z,96323.06
2019-05-19T22:31:14.368Z,96323.00
2019-05-19T22:33:43.176Z,96317.77
2019-05-19T22:36:11.781Z,96312.10
2019-05-19T22:38:40.475Z,96313.33
2019-05-19T22:41:09.235Z,96315.46
2019-05-19T22:43:37.818Z,96315.55
2019-05-19T22:46:06.563Z,96317.17
2019-05-19T22:48:35.266Z,96310.87
2019-05-19T22:51:03.913Z,96315.59
2019-05-19T22:53:32.896Z,96323.45
2019-05-19T22:56:01.696Z,96322.56
2019-05-19T22:58:30.388Z,96321.71
2019-05-19T23:00:59.110Z,96329.55
2019-05-19T23:03:27.751Z,96331.03
2019-05-19T23:05:56.404Z,96330.17
2019-05-19T23:08:25.162Z,96330.53
2019-05-19T23:10:53.800Z,96329.68
2019-05-19T23:13:22.462Z,96331.36
2019-05-19T23:15:51.157Z,96326.11
2019-05-19T23:18:19.874Z,96322.36
2019-05-19T23:20:48.502Z,96321.02
2019-05-19T23:23:17.186Z,96326.66
2019-05-19T23:25:45.802Z,96328.44
2019-05-19T23:28:14.317Z,96311.74
2019-05-19T23:30:43.245Z,96342.92
2019-05-19T23:33:11.915Z,96325.77
2019-05-19T23:35:40.508Z,96325.77
2019-05-19T23:38:09.198Z,96324.80
2019-05-19T23:40:37.964Z,96314.52
2019-05-19T23:43:06.691Z,96317.20
2019-05-19T23:45:35.391Z,96314.46
2019-05-19T23:48:04.051Z,96314.19
2019-05-19T23:50:32.757Z,96321.30
2019-05-19T23:53:01.454Z,96290.58
2019-05-19T23:55:30.118Z,96290.58
2019-05-19T23:57:58.800Z,96311.98
